sensor_id;sensor_type;location;lat;lon;timestamp;pressure;altitude;pressure_sealevel;temperature;humidity
31121;BME280;17770;45.966;13.632;2023-04-06T00:00:32;100897.81;;;17.17;52.32
31121;BME280;17770;45.966;13.632;2023-04-06T00:02:58;100897.88;;;17.16;52.21
31121;BME280;17770;45.966;13.632;2023-04-06T00:05:24;100897.88;;;17.16;51.88
31121;BME280;17770;45.966;13.632;2023-04-06T00:07:50;100897.03;;;17.15;51.78
31121;BME280;17770;45.966;13.632;2023-04-06T00:10:16;100886.69;;;17.14;51.93
31121;BME280;17770;45.966;13.632;2023-04-06T00:12:42;100890.19;;;17.13;52.26
31121;BME280;17770;45.966;13.632;2023-04-06T00:15:08;100890.19;;;17.13;52.49
31121;BME280;17770;45.966;13.632;2023-04-06T00:17:34;100888.53;;;17.12;52.16
31121;BME280;17770;45.966;13.632;2023-04-06T00:20:00;100890.34;;;17.10;52.29
31121;BME280;17770;45.966;13.632;2023-04-06T00:22:26;100885.13;;;17.10;52.41
31121;BME280;17770;45.966;13.632;2023-04-06T00:24:52;100879.94;;;17.10;52.44
31121;BME280;17770;45.966;13.632;2023-04-06T00:27:18;100874.88;;;17.07;52.19
31121;BME280;17770;45.966;13.632;2023-04-06T00:29:44;100886.19;;;17.06;52.01
31121;BME280;17770;45.966;13.632;2023-04-06T00:32:10;100882.75;;;17.05;52.06
31121;BME280;17770;45.966;13.632;2023-04-06T00:34:36;100876.78;;;17.03;52.32
31121;BME280;17770;45.966;13.632;2023-04-06T00:37:02;100875.09;;;17.02;51.81
31121;BME280;17770;45.966;13.632;2023-04-06T00:39:28;100881.13;;;17.03;52.10
31121;BME280;17770;45.966;13.632;2023-04-06T00:41:54;100879.47;;;17.02;51.77
31121;BME280;17770;45.966;13.632;2023-04-06T00:44:22;100876.91;;;17.00;52.33
31121;BME280;17770;45.966;13.632;2023-04-06T00:46:47;100875.22;;;16.99;51.95
31121;BME280;17770;45.966;13.632;2023-04-06T00:49:13;100881.28;;;17.00;52.12
31121;BME280;17770;45.966;13.632;2023-04-06T00:51:39;100878.75;;;16.98;52.40
31121;BME280;17770;45.966;13.632;2023-04-06T00:54:05;100873.63;;;16.97;52.13
31121;BME280;17770;45.966;13.632;2023-04-06T00:56:33;100878.81;;;16.97;52.09
31121;BME280;17770;45.966;13.632;2023-04-06T00:58:59;100871.94;;;16.96;51.74
31121;BME280;17770;45.966;13.632;2023-04-06T01:01:26;100880.66;;;16.94;52.20
31121;BME280;17770;45.966;13.632;2023-04-06T01:03:54;100879.78;;;16.94;52.16
31121;BME280;17770;45.966;13.632;2023-04-06T01:06:20;100871.22;;;16.92;52.06
31121;BME280;17770;45.966;13.632;2023-04-06T01:08:56;100872.06;;;16.92;52.06
31121;BME280;17770;45.966;13.632;2023-04-06T01:11:24;100875.50;;;16.93;52.02
31121;BME280;17770;45.966;13.632;2023-04-06T01:13:52;100870.38;;;16.91;51.70
31121;BME280;17770;45.966;13.632;2023-04-06T01:16:38;100873.06;;;16.90;52.06
31121;BME280;17770;45.966;13.632;2023-04-06T01:19:14;100865.25;;;16.90;52.04
31121;BME280;17770;45.966;13.632;2023-04-06T01:21:46;100864.41;;;16.89;52.13
31121;BME280;17770;45.966;13.632;2023-04-06T01:24:30;100867.16;;;16.86;51.94
31121;BME280;17770;45.966;13.632;2023-04-06T01:27:16;100873.28;;;16.85;51.47
31121;BME280;17770;45.966;13.632;2023-04-06T01:30:02;100872.50;;;16.83;52.34
31121;BME280;17770;45.966;13.632;2023-04-06T01:32:54;100874.34;;;16.81;52.36
31121;BME280;17770;45.966;13.632;2023-04-06T01:35:39;100874.41;;;16.80;52.28
31121;BME280;17770;45.966;13.632;2023-04-06T01:38:14;100873.56;;;16.79;52.29
31121;BME280;17770;45.966;13.632;2023-04-06T01:40:40;100870.13;;;16.79;52.44
31121;BME280;17770;45.966;13.632;2023-04-06T01:43:06;100871.88;;;16.78;52.44
31121;BME280;17770;45.966;13.632;2023-04-06T01:46:01;100873.69;;;16.76;52.31
31121;BME280;17770;45.966;13.632;2023-04-06T01:48:33;100876.31;;;16.76;51.96
31121;BME280;17770;45.966;13.632;2023-04-06T01:51:03;100869.41;;;16.75;52.07
31121;BME280;17770;45.966;13.632;2023-04-06T01:53:33;100873.78;;;16.75;51.97
31121;BME280;17770;45.966;13.632;2023-04-06T01:56:04;100868.63;;;16.73;52.09
31121;BME280;17770;45.966;13.632;2023-04-06T01:58:33;100864.38;;;16.72;52.05
31121;BME280;17770;45.966;13.632;2023-04-06T02:01:00;100871.31;;;16.72;52.34
31121;BME280;17770;45.966;13.632;2023-04-06T02:03:30;100867.06;;;16.69;52.49
31121;BME280;17770;45.966;13.632;2023-04-06T02:06:04;100862.72;;;16.70;52.44
31121;BME280;17770;45.966;13.632;2023-04-06T02:08:34;100868.88;;;16.69;52.06
31121;BME280;17770;45.966;13.632;2023-04-06T02:11:00;100859.41;;;16.66;52.05
31121;BME280;17770;45.966;13.632;2023-04-06T02:13:32;100863.78;;;16.66;52.05
31121;BME280;17770;45.966;13.632;2023-04-06T02:15:58;100858.63;;;16.64;51.80
31121;BME280;17770;45.966;13.632;2023-04-06T02:18:26;100854.34;;;16.63;52.58
31121;BME280;17770;45.966;13.632;2023-04-06T02:20:52;100860.50;;;16.62;52.27
31121;BME280;17770;45.966;13.632;2023-04-06T02:23:18;100857.03;;;16.62;52.36
31121;BME280;17770;45.966;13.632;2023-04-06T02:25:44;100854.50;;;16.60;52.50
31121;BME280;17770;45.966;13.632;2023-04-06T02:28:09;100866.66;;;16.60;51.84
31121;BME280;17770;45.966;13.632;2023-04-06T02:30:35;100858.00;;;16.59;51.88
31121;BME280;17770;45.966;13.632;2023-04-06T02:33:02;100860.69;;;16.58;52.39
31121;BME280;17770;45.966;13.632;2023-04-06T02:35:32;100853.78;;;16.57;51.79
31121;BME280;17770;45.966;13.632;2023-04-06T02:37:58;100847.81;;;16.55;51.90
31121;BME280;17770;45.966;13.632;2023-04-06T02:40:24;100849.56;;;16.54;51.85
31121;BME280;17770;45.966;13.632;2023-04-06T02:42:50;100846.94;;;16.54;52.59
31121;BME280;17770;45.966;13.632;2023-04-06T02:45:23;100846.19;;;16.52;52.03
31121;BME280;17770;45.966;13.632;2023-04-06T02:47:49;100842.75;;;16.52;52.27
31121;BME280;17770;45.966;13.632;2023-04-06T02:50:16;100838.47;;;16.51;51.95
31121;BME280;17770;45.966;13.632;2023-04-06T02:52:51;100851.56;;;16.49;52.47
31121;BME280;17770;45.966;13.632;2023-04-06T02:55:17;100843.78;;;16.48;52.34
31121;BME280;17770;45.966;13.632;2023-04-06T02:57:42;100850.69;;;16.49;52.42
31121;BME280;17770;45.966;13.632;2023-04-06T03:00:09;100844.72;;;16.47;52.58
31121;BME280;17770;45.966;13.632;2023-04-06T03:02:39;100842.19;;;16.45;51.93
31121;BME280;17770;45.966;13.632;2023-04-06T03:05:09;100849.09;;;16.45;51.98
31121;BME280;17770;45.966;13.632;2023-04-06T03:07:39;100852.63;;;16.44;51.93
31121;BME280;17770;45.966;13.632;2023-04-06T03:10:09;100845.69;;;16.44;51.97
31121;BME280;17770;45.966;13.632;2023-04-06T03:12:35;100845.78;;;16.41;52.23
31121;BME280;17770;45.966;13.632;2023-04-06T03:15:16;100843.19;;;16.41;51.90
31121;BME280;17770;45.966;13.632;2023-04-06T03:17:47;100848.47;;;16.40;52.55
31121;BME280;17770;45.966;13.632;2023-04-06T03:20:30;100850.25;;;16.39;51.85
31121;BME280;17770;45.966;13.632;2023-04-06T03:22:55;100846.88;;;16.37;52.54
31121;BME280;17770;45.966;13.632;2023-04-06T03:25:26;100849.53;;;16.36;52.04
31121;BME280;17770;45.966;13.632;2023-04-06T03:27:54;100847.84;;;16.35;51.88
31121;BME280;17770;45.966;13.632;2023-04-06T03:30:20;100846.16;;;16.34;51.78
31121;BME280;17770;45.966;13.632;2023-04-06T03:32:46;100861.78;;;16.34;51.90
31121;BME280;17770;45.966;13.632;2023-04-06T03:35:12;100852.28;;;16.33;52.39
31121;BME280;17770;45.966;13.632;2023-04-06T03:37:38;100854.94;;;16.31;52.43
31121;BME280;17770;45.966;13.632;2023-04-06T03:40:04;100863.59;;;16.32;51.82
31121;BME280;17770;45.966;13.632;2023-04-06T03:42:31;100856.78;;;16.29;51.74
31121;BME280;17770;45.966;13.632;2023-04-06T03:45:03;100855.94;;;16.29;51.88
31121;BME280;17770;45.966;13.632;2023-04-06T03:47:30;100867.19;;;16.29;51.94
31121;BME280;17770;45.966;13.632;2023-04-06T03:49:59;100869.88;;;16.28;52.00
31121;BME280;17770;45.966;13.632;2023-04-06T03:52:25;100860.34;;;16.27;51.96
31121;BME280;17770;45.966;13.632;2023-04-06T03:54:52;100862.16;;;16.25;52.36
31121;BME280;17770;45.966;13.632;2023-04-06T03:57:17;100866.56;;;16.24;51.94
31121;BME280;17770;45.966;13.632;2023-04-06T03:59:43;100864.03;;;16.23;52.45
31121;BME280;17770;45.966;13.632;2023-04-06T04:02:09;100872.66;;;16.23;52.45
31121;BME280;17770;45.966;13.632;2023-04-06T04:04:35;100869.31;;;16.21;51.83
31121;BME280;17770;45.966;13.632;2023-04-06T04:07:01;100868.44;;;16.21;51.95
31121;BME280;17770;45.966;13.632;2023-04-06T04:09:27;100868.44;;;16.21;51.85
31121;BME280;17770;45.966;13.632;2023-04-06T04:11:52;100863.31;;;16.19;52.37
31121;BME280;17770;45.966;13.632;2023-04-06T04:14:19;100882.41;;;16.18;51.89
31121;BME280;17770;45.966;13.632;2023-04-06T04:16:45;100880.75;;;16.17;51.89
31121;BME280;17770;45.966;13.632;2023-04-06T04:19:11;100872.09;;;16.17;51.81
31121;BME280;17770;45.966;13.632;2023-04-06T04:21:45;100879.06;;;16.16;51.73
31121;BME280;17770;45.966;13.632;2023-04-06T04:24:13;100874.69;;;16.17;52.20
31121;BME280;17770;45.966;13.632;2023-04-06T04:26:39;100871.28;;;16.15;51.83
31121;BME280;17770;45.966;13.632;2023-04-06T04:29:06;100880.88;;;16.14;52.16
31121;BME280;17770;45.966;13.632;2023-04-06T04:31:32;100884.38;;;16.13;52.21
31121;BME280;17770;45.966;13.632;2023-04-06T04:34:02;100881.91;;;16.10;51.84
31121;BME280;17770;45.966;13.632;2023-04-06T04:36:32;100882.84;;;16.09;51.99
31121;BME280;17770;45.966;13.632;2023-04-06T04:39:01;100888.03;;;16.09;52.25
31121;BME280;17770;45.966;13.632;2023-04-06T04:41:30;100884.66;;;16.07;52.12
31121;BME280;17770;45.966;13.632;2023-04-06T04:43:57;100892.47;;;16.07;52.31
31121;BME280;17770;45.966;13.632;2023-04-06T04:46:24;100895.06;;;16.07;52.29
31121;BME280;17770;45.966;13.632;2023-04-06T04:48:51;100890.78;;;16.06;51.77
31121;BME280;17770;45.966;13.632;2023-04-06T04:51:17;100896.88;;;16.05;51.95
31121;BME280;17770;45.966;13.632;2023-04-06T04:54:20;100897.00;;;16.02;51.95
31121;BME280;17770;45.966;13.632;2023-04-06T04:56:46;100890.06;;;16.03;51.80
31121;BME280;17770;45.966;13.632;2023-04-06T04:59:30;100898.75;;;16.02;52.23
31121;BME280;17770;45.966;13.632;2023-04-06T05:02:01;100905.81;;;16.00;52.22
31121;BME280;17770;45.966;13.632;2023-04-06T05:04:37;100902.34;;;15.99;52.30
31121;BME280;17770;45.966;13.632;2023-04-06T05:07:08;100901.50;;;15.99;51.92
31121;BME280;17770;45.966;13.632;2023-04-06T05:09:36;100898.91;;;15.99;52.14
31121;BME280;17770;45.966;13.632;2023-04-06T05:12:02;100907.63;;;15.98;51.59
31121;BME280;17770;45.966;13.632;2023-04-06T05:14:33;100910.31;;;15.96;51.89
31121;BME280;17770;45.966;13.632;2023-04-06T05:17:01;100912.97;;;15.95;52.18
31121;BME280;17770;45.966;13.632;2023-04-06T05:19:27;100912.13;;;15.94;51.69
31121;BME280;17770;45.966;13.632;2023-04-06T05:21:53;100906.97;;;15.93;52.04
31121;BME280;17770;45.966;13.632;2023-04-06T05:24:19;100911.19;;;15.95;51.70
31121;BME280;17770;45.966;13.632;2023-04-06T05:26:47;100908.66;;;15.94;51.97
31121;BME280;17770;45.966;13.632;2023-04-06T05:29:20;100912.19;;;15.93;52.22
31121;BME280;17770;45.966;13.632;2023-04-06T05:31:46;100912.25;;;15.91;51.65
31121;BME280;17770;45.966;13.632;2023-04-06T05:34:13;100907.13;;;15.90;52.23
31121;BME280;17770;45.966;13.632;2023-04-06T05:36:39;100908.00;;;15.89;51.87
31121;BME280;17770;45.966;13.632;2023-04-06T05:39:15;100912.38;;;15.88;52.13
31121;BME280;17770;45.966;13.632;2023-04-06T05:41:48;100907.22;;;15.87;51.70
31121;BME280;17770;45.966;13.632;2023-04-06T05:44:15;100908.06;;;15.87;52.01
31121;BME280;17770;45.966;13.632;2023-04-06T05:46:45;100913.34;;;15.86;51.72
31121;BME280;17770;45.966;13.632;2023-04-06T05:49:14;100905.53;;;15.86;52.18
31121;BME280;17770;45.966;13.632;2023-04-06T05:51:41;100908.22;;;15.84;52.00
31121;BME280;17770;45.966;13.632;2023-04-06T05:54:07;100912.56;;;15.84;51.72
31121;BME280;17770;45.966;13.632;2023-04-06T05:56:33;100912.56;;;15.84;51.99
31121;BME280;17770;45.966;13.632;2023-04-06T05:59:00;100910.03;;;15.82;51.62
31121;BME280;17770;45.966;13.632;2023-04-06T06:01:28;100914.41;;;15.82;52.12
31121;BME280;17770;45.966;13.632;2023-04-06T06:03:55;100912.69;;;15.81;51.91
31121;BME280;17770;45.966;13.632;2023-04-06T06:06:23;100911.84;;;15.80;52.03
31121;BME280;17770;45.966;13.632;2023-04-06T06:09:09;100916.22;;;15.80;51.72
31121;BME280;17770;45.966;13.632;2023-04-06T06:11:41;100913.69;;;15.78;51.99
31121;BME280;17770;45.966;13.632;2023-04-06T06:14:09;100918.81;;;15.80;51.62
31121;BME280;17770;45.966;13.632;2023-04-06T06:16:38;100914.56;;;15.77;52.03
31121;BME280;17770;45.966;13.632;2023-04-06T06:19:04;100917.16;;;15.77;52.02
31121;BME280;17770;45.966;13.632;2023-04-06T06:21:31;100913.75;;;15.77;51.75
31121;BME280;17770;45.966;13.632;2023-04-06T06:23:57;100915.56;;;15.75;51.60
31121;BME280;17770;45.966;13.632;2023-04-06T06:26:23;100911.19;;;15.75;51.86
31121;BME280;17770;45.966;13.632;2023-04-06T06:28:50;100915.56;;;15.75;51.59
31121;BME280;17770;45.966;13.632;2023-04-06T06:31:15;100908.66;;;15.74;51.55
31121;BME280;17770;45.966;13.632;2023-04-06T06:33:43;100915.63;;;15.73;51.43
31121;BME280;17770;45.966;13.632;2023-04-06T06:36:09;100905.22;;;15.73;51.43
31121;BME280;17770;45.966;13.632;2023-04-06T06:38:35;100907.03;;;15.71;51.55
31121;BME280;17770;45.966;13.632;2023-04-06T06:41:01;100911.31;;;15.72;51.25
31121;BME280;17770;45.966;13.632;2023-04-06T06:43:29;100911.31;;;15.72;51.81
31121;BME280;17770;45.966;13.632;2023-04-06T06:46:01;100906.25;;;15.69;51.60
31121;BME280;17770;45.966;13.632;2023-04-06T06:48:27;100906.25;;;15.69;51.42
31121;BME280;17770;45.966;13.632;2023-04-06T06:50:53;100910.53;;;15.70;51.29
31121;BME280;17770;45.966;13.632;2023-04-06T06:53:19;100905.31;;;15.70;51.34
31121;BME280;17770;45.966;13.632;2023-04-06T06:55:45;100901.91;;;15.70;51.26
31121;BME280;17770;45.966;13.632;2023-04-06T06:58:11;100903.72;;;15.68;51.59
31121;BME280;17770;45.966;13.632;2023-04-06T07:00:37;100903.72;;;15.68;51.36
31121;BME280;17770;45.966;13.632;2023-04-06T07:03:03;100908.06;;;15.67;51.74
31121;BME280;17770;45.966;13.632;2023-04-06T07:05:29;100910.72;;;15.65;51.47
31121;BME280;17770;45.966;13.632;2023-04-06T07:07:57;100907.25;;;15.67;51.37
31121;BME280;17770;45.966;13.632;2023-04-06T07:10:24;100904.69;;;15.65;51.70
31121;BME280;17770;45.966;13.632;2023-04-06T07:12:51;100904.69;;;15.65;52.03
31121;BME280;17770;45.966;13.632;2023-04-06T07:15:17;100906.44;;;15.64;51.43
31121;BME280;17770;45.966;13.632;2023-04-06T07:17:43;100905.59;;;15.64;51.92
31121;BME280;17770;45.966;13.632;2023-04-06T07:20:12;100904.75;;;15.63;51.83
31121;BME280;17770;45.966;13.632;2023-04-06T07:22:39;100909.13;;;15.63;51.73
31121;BME280;17770;45.966;13.632;2023-04-06T07:25:05;100908.25;;;15.62;51.41
31121;BME280;17770;45.966;13.632;2023-04-06T07:27:31;100901.38;;;15.61;51.56
31121;BME280;17770;45.966;13.632;2023-04-06T07:29:57;100900.53;;;15.61;51.95
31121;BME280;17770;45.966;13.632;2023-04-06T07:32:25;100900.53;;;15.61;51.43
31121;BME280;17770;45.966;13.632;2023-04-06T07:34:51;100908.31;;;15.61;51.71
31121;BME280;17770;45.966;13.632;2023-04-06T07:37:17;100901.38;;;15.61;51.63
31121;BME280;17770;45.966;13.632;2023-04-06T07:39:44;100902.28;;;15.60;51.64
31121;BME280;17770;45.966;13.632;2023-04-06T07:42:11;100900.53;;;15.61;51.89
31121;BME280;17770;45.966;13.632;2023-04-06T07:44:37;100900.53;;;15.61;51.53
31121;BME280;17770;45.966;13.632;2023-04-06T07:47:03;100898.78;;;15.61;51.64
31121;BME280;17770;45.966;13.632;2023-04-06T07:49:29;100892.72;;;15.61;51.81
31121;BME280;17770;45.966;13.632;2023-04-06T07:51:56;100901.38;;;15.61;51.55
31121;BME280;17770;45.966;13.632;2023-04-06T07:54:22;100897.00;;;15.62;51.74
31121;BME280;17770;45.966;13.632;2023-04-06T07:56:47;100897.00;;;15.62;51.30
31121;BME280;17770;45.966;13.632;2023-04-06T07:59:13;100900.47;;;15.62;51.75
31121;BME280;17770;45.966;13.632;2023-04-06T08:01:39;100903.91;;;15.63;51.65
31121;BME280;17770;45.966;13.632;2023-04-06T08:04:05;100897.00;;;15.62;51.57
31121;BME280;17770;45.966;13.632;2023-04-06T08:06:31;100897.00;;;15.62;51.58
31121;BME280;17770;45.966;13.632;2023-04-06T08:08:57;100890.97;;;15.61;51.37
31121;BME280;17770;45.966;13.632;2023-04-06T08:11:23;100892.72;;;15.61;51.67
31121;BME280;17770;45.966;13.632;2023-04-06T08:13:48;100886.59;;;15.62;51.52
31121;BME280;17770;45.966;13.632;2023-04-06T08:16:15;100888.31;;;15.63;51.37
31121;BME280;17770;45.966;13.632;2023-04-06T08:18:40;100882.19;;;15.64;51.35
31121;BME280;17770;45.966;13.632;2023-04-06T08:21:06;100879.66;;;15.62;51.66
31121;BME280;17770;45.966;13.632;2023-04-06T08:23:32;100881.31;;;15.65;51.03
31121;BME280;17770;45.966;13.632;2023-04-06T08:25:58;100879.47;;;15.67;51.54
31121;BME280;17770;45.966;13.632;2023-04-06T08:28:24;100877.78;;;15.66;51.71
31121;BME280;17770;45.966;13.632;2023-04-06T08:30:50;100873.44;;;15.67;51.62
31121;BME280;17770;45.966;13.632;2023-04-06T08:33:16;100876.78;;;15.68;51.12
31121;BME280;17770;45.966;13.632;2023-04-06T08:35:42;100870.75;;;15.68;51.17
31121;BME280;17770;45.966;13.632;2023-04-06T08:38:07;100871.59;;;15.68;51.31
31121;BME280;17770;45.966;13.632;2023-04-06T08:40:37;100876.72;;;15.70;51.57
31121;BME280;17770;45.966;13.632;2023-04-06T08:43:03;100875.03;;;15.69;51.25
31121;BME280;17770;45.966;13.632;2023-04-06T08:45:34;100872.44;;;15.69;51.74
31121;BME280;17770;45.966;13.632;2023-04-06T08:48:00;100866.38;;;15.68;51.40
31121;BME280;17770;45.966;13.632;2023-04-06T08:50:29;100864.66;;;15.69;51.53
31121;BME280;17770;45.966;13.632;2023-04-06T08:52:55;100854.25;;;15.69;51.76
31121;BME280;17770;45.966;13.632;2023-04-06T08:55:22;100857.69;;;15.70;51.31
31121;BME280;17770;45.966;13.632;2023-04-06T08:57:48;100855.91;;;15.70;51.64
31121;BME280;17770;45.966;13.632;2023-04-06T09:00:14;100856.78;;;15.71;51.53
31121;BME280;17770;45.966;13.632;2023-04-06T09:02:42;100847.22;;;15.71;51.42
31121;BME280;17770;45.966;13.632;2023-04-06T09:05:08;100853.28;;;15.72;51.77
31121;BME280;17770;45.966;13.632;2023-04-06T09:07:37;100849.81;;;15.71;51.38
31121;BME280;17770;45.966;13.632;2023-04-06T09:10:04;100842.88;;;15.72;51.46
31121;BME280;17770;45.966;13.632;2023-04-06T09:12:30;100842.81;;;15.73;51.44
31121;BME280;17770;45.966;13.632;2023-04-06T09:14:57;100836.75;;;15.73;51.78
31121;BME280;17770;45.966;13.632;2023-04-06T09:17:25;100839.28;;;15.74;51.77
31121;BME280;17770;45.966;13.632;2023-04-06T09:19:51;100833.16;;;15.75;51.48
31121;BME280;17770;45.966;13.632;2023-04-06T09:22:18;100840.06;;;15.76;51.43
31121;BME280;17770;45.966;13.632;2023-04-06T09:24:45;100839.16;;;15.77;51.32
31121;BME280;17770;45.966;13.632;2023-04-06T09:27:11;100831.34;;;15.77;51.65
31121;BME280;17770;45.966;13.632;2023-04-06T09:29:37;100833.94;;;15.77;51.35
31121;BME280;17770;45.966;13.632;2023-04-06T09:34:30;100826.09;;;15.79;51.71
31121;BME280;17770;45.966;13.632;2023-04-06T09:36:55;100826.09;;;15.79;51.82
31121;BME280;17770;45.966;13.632;2023-04-06T09:39:22;100827.00;;;15.78;51.79
31121;BME280;17770;45.966;13.632;2023-04-06T09:41:50;100825.25;;;15.78;52.26
31121;BME280;17770;45.966;13.632;2023-04-06T09:44:16;100819.19;;;15.78;52.10
31121;BME280;17770;45.966;13.632;2023-04-06T09:46:42;100812.25;;;15.78;52.32
31121;BME280;17770;45.966;13.632;2023-04-06T09:49:09;100816.59;;;15.78;52.45
31121;BME280;17770;45.966;13.632;2023-04-06T09:54:04;100812.19;;;15.80;52.41
31121;BME280;17770;45.966;13.632;2023-04-06T09:56:31;100807.88;;;15.79;52.63
31121;BME280;17770;45.966;13.632;2023-04-06T09:59:02;100805.22;;;15.80;52.44
31121;BME280;17770;45.966;13.632;2023-04-06T10:01:31;100795.66;;;15.81;52.74
31121;BME280;17770;45.966;13.632;2023-04-06T10:04:10;100798.19;;;15.82;52.35
31121;BME280;17770;45.966;13.632;2023-04-06T10:06:38;100786.91;;;15.83;52.85
31121;BME280;17770;45.966;13.632;2023-04-06T10:09:04;100782.59;;;15.82;52.59
31121;BME280;17770;45.966;13.632;2023-04-06T10:11:33;100772.03;;;15.85;52.80
31121;BME280;17770;45.966;13.632;2023-04-06T10:14:00;100777.16;;;15.87;52.70
31121;BME280;17770;45.966;13.632;2023-04-06T10:16:26;100771.16;;;15.86;52.92
31121;BME280;17770;45.966;13.632;2023-04-06T10:18:58;100771.06;;;15.88;52.45
31121;BME280;17770;45.966;13.632;2023-04-06T10:21:25;100763.28;;;15.88;52.85
31121;BME280;17770;45.966;13.632;2023-04-06T10:23:59;100755.41;;;15.89;53.28
31121;BME280;17770;45.966;13.632;2023-04-06T10:26:26;100758.84;;;15.90;53.10
31121;BME280;17770;45.966;13.632;2023-04-06T10:28:52;100760.47;;;15.92;52.96
31121;BME280;17770;45.966;13.632;2023-04-06T10:31:25;100749.16;;;15.93;53.38
31121;BME280;17770;45.966;13.632;2023-04-06T10:33:55;100757.72;;;15.95;53.18
31121;BME280;17770;45.966;13.632;2023-04-06T10:36:22;100750.75;;;15.96;52.89
31121;BME280;17770;45.966;13.632;2023-04-06T10:38:53;100748.09;;;15.97;53.25
31121;BME280;17770;45.966;13.632;2023-04-06T10:41:19;100748.03;;;15.99;52.90
31121;BME280;17770;45.966;13.632;2023-04-06T10:43:46;100747.94;;;16.00;53.08
31121;BME280;17770;45.966;13.632;2023-04-06T10:46:24;100751.31;;;16.02;53.25
31121;BME280;17770;45.966;13.632;2023-04-06T10:48:50;100746.97;;;16.03;52.85
31121;BME280;17770;45.966;13.632;2023-04-06T10:51:17;100752.13;;;16.04;53.16
31121;BME280;17770;45.966;13.632;2023-04-06T10:53:46;100736.44;;;16.06;53.40
31121;BME280;17770;45.966;13.632;2023-04-06T10:56:16;100740.72;;;16.07;53.38
31121;BME280;17770;45.966;13.632;2023-04-06T10:58:45;100735.44;;;16.08;53.82
31121;BME280;17770;45.966;13.632;2023-04-06T11:01:12;100725.88;;;16.09;53.38
31121;BME280;17770;45.966;13.632;2023-04-06T11:03:44;100721.44;;;16.11;53.55
31121;BME280;17770;45.966;13.632;2023-04-06T11:06:11;100728.25;;;16.13;53.53
31121;BME280;17770;45.966;13.632;2023-04-06T11:08:42;100713.50;;;16.14;54.12
31121;BME280;17770;45.966;13.632;2023-04-06T11:11:09;100705.69;;;16.14;53.55
31121;BME280;17770;45.966;13.632;2023-04-06T11:13:46;100709.94;;;16.16;54.31
31121;BME280;17770;45.966;13.632;2023-04-06T11:16:21;100721.94;;;16.19;53.99
31121;BME280;17770;45.966;13.632;2023-04-06T11:21:17;100707.94;;;16.21;54.29
31121;BME280;17770;45.966;13.632;2023-04-06T11:23:43;100699.22;;;16.22;54.11
31121;BME280;17770;45.966;13.632;2023-04-06T11:26:12;100698.28;;;16.23;54.44
31121;BME280;17770;45.966;13.632;2023-04-06T11:28:38;100693.78;;;16.27;54.75
31121;BME280;17770;45.966;13.632;2023-04-06T11:31:05;100689.34;;;16.29;54.64
31121;BME280;17770;45.966;13.632;2023-04-06T11:33:37;100690.13;;;16.31;54.73
31121;BME280;17770;45.966;13.632;2023-04-06T11:36:06;100687.47;;;16.32;54.40
31121;BME280;17770;45.966;13.632;2023-04-06T11:38:32;100680.44;;;16.34;54.98
31121;BME280;17770;45.966;13.632;2023-04-06T11:40:58;100676.91;;;16.35;54.53
31121;BME280;17770;45.966;13.632;2023-04-06T11:43:28;100676.81;;;16.37;55.14
31121;BME280;17770;45.966;13.632;2023-04-06T11:45:59;100680.13;;;16.40;55.35
31121;BME280;17770;45.966;13.632;2023-04-06T11:48:25;100672.22;;;16.42;55.00
31121;BME280;17770;45.966;13.632;2023-04-06T11:50:55;100672.09;;;16.45;55.26
31121;BME280;17770;45.966;13.632;2023-04-06T11:53:21;100675.50;;;16.47;55.34
31121;BME280;17770;45.966;13.632;2023-04-06T11:55:47;100670.22;;;16.48;55.45
31121;BME280;17770;45.966;13.632;2023-04-06T11:58:12;100670.97;;;16.50;55.07
31121;BME280;17770;45.966;13.632;2023-04-06T12:00:38;100669.97;;;16.53;55.49
31121;BME280;17770;45.966;13.632;2023-04-06T12:03:12;100666.41;;;16.55;56.01
31121;BME280;17770;45.966;13.632;2023-04-06T12:05:38;100660.25;;;16.56;55.60
31121;BME280;17770;45.966;13.632;2023-04-06T12:08:04;100666.16;;;16.60;55.40
31121;BME280;17770;45.966;13.632;2023-04-06T12:10:30;100660.06;;;16.61;55.40
31121;BME280;17770;45.966;13.632;2023-04-06T12:12:56;100663.41;;;16.63;55.97
31121;BME280;17770;45.966;13.632;2023-04-06T12:15:22;100659.81;;;16.65;55.93
31121;BME280;17770;45.966;13.632;2023-04-06T12:17:48;100651.94;;;16.67;55.32
31121;BME280;17770;45.966;13.632;2023-04-06T12:20:15;100653.53;;;16.69;56.35
31121;BME280;17770;45.966;13.632;2023-04-06T12:22:41;100653.41;;;16.72;56.79
31121;BME280;17770;45.966;13.632;2023-04-06T12:25:07;100639.44;;;16.73;56.55
31121;BME280;17770;45.966;13.632;2023-04-06T12:27:33;100643.56;;;16.77;57.53
31121;BME280;17770;45.966;13.632;2023-04-06T12:29:59;100645.25;;;16.78;57.46
31121;BME280;17770;45.966;13.632;2023-04-06T12:32:24;100632.06;;;16.81;56.75
31121;BME280;17770;45.966;13.632;2023-04-06T12:34:51;100637.22;;;16.83;57.69
31121;BME280;17770;45.966;13.632;2023-04-06T12:37:19;100633.63;;;16.85;58.09
31121;BME280;17770;45.966;13.632;2023-04-06T12:39:46;100628.25;;;16.88;57.07
31121;BME280;17770;45.966;13.632;2023-04-06T12:42:12;100631.63;;;16.90;57.65
31121;BME280;17770;45.966;13.632;2023-04-06T12:44:38;100622.88;;;16.91;58.02
31121;BME280;17770;45.966;13.632;2023-04-06T12:47:04;100619.22;;;16.96;57.62
31121;BME280;17770;45.966;13.632;2023-04-06T12:49:30;100619.13;;;16.97;58.53
31121;BME280;17770;45.966;13.632;2023-04-06T12:51:57;100617.25;;;16.99;58.15